createdAt,value
2018-02-27T00:00:04.233Z,41.50
2018-02-27T00:00:35.798Z,41.10
2018-02-27T00:01:07.413Z,41.20
2018-02-27T00:01:39.055Z,41.00
2018-02-27T00:02:10.711Z,40.90
2018-02-27T00:02:42.353Z,40.90
2018-02-27T00:03:13.993Z,40.50
2018-02-27T00:03:45.603Z,40.50
2018-02-27T00:04:17.251Z,40.40
2018-02-27T00:04:48.884Z,40.40
2018-02-27T00:05:20.540Z,40.40
2018-02-27T00:05:52.190Z,40.50
2018-02-27T00:06:23.829Z,40.20
2018-02-27T00:06:55.451Z,39.90
2018-02-27T00:07:27.061Z,40.00
2018-02-27T00:07:58.697Z,40.20
2018-02-27T00:08:30.340Z,40.30
2018-02-27T00:09:01.960Z,39.70
2018-02-27T00:09:33.613Z,39.90
2018-02-27T00:10:05.256Z,39.90
2018-02-27T00:10:36.965Z,40.20
2018-02-27T00:11:08.589Z,40.00
2018-02-27T00:11:40.203Z,40.00
2018-02-27T00:12:11.825Z,39.90
2018-02-27T00:12:43.481Z,39.80
2018-02-27T00:13:15.113Z,39.80
2018-02-27T00:13:46.746Z,39.50
2018-02-27T00:14:18.386Z,39.50
2018-02-27T00:14:50.037Z,39.40
2018-02-27T00:15:21.670Z,39.50
2018-02-27T00:15:53.357Z,39.50
2018-02-27T00:16:25.002Z,39.30
2018-02-27T00:16:56.625Z,39.50
2018-02-27T00:17:28.287Z,39.50
2018-02-27T00:17:59.907Z,39.30
2018-02-27T00:18:31.529Z,39.50
2018-02-27T00:19:03.190Z,39.50
2018-02-27T00:19:34.816Z,39.80
2018-02-27T00:20:06.443Z,39.80
2018-02-27T00:20:38.088Z,39.40
2018-02-27T00:21:09.714Z,39.50
2018-02-27T00:21:41.323Z,39.20
2018-02-27T00:22:12.959Z,39.30
2018-02-27T00:22:44.629Z,39.20
2018-02-27T00:23:16.286Z,39.10
2018-02-27T00:23:47.916Z,39.00
2018-02-27T00:24:19.548Z,38.50
2018-02-27T00:24:51.150Z,38.60
2018-02-27T00:25:22.789Z,38.60
2018-02-27T00:25:54.442Z,38.40
2018-02-27T00:26:26.059Z,38.30
2018-02-27T00:26:57.698Z,38.40
2018-02-27T00:27:29.317Z,38.10
2018-02-27T00:28:00.938Z,38.20
2018-02-27T00:28:32.557Z,38.40
2018-02-27T00:29:04.207Z,38.40
2018-02-27T00:29:35.807Z,38.20
2018-02-27T00:30:07.454Z,38.50
2018-02-27T00:30:39.109Z,38.30
2018-02-27T00:31:10.747Z,38.40
2018-02-27T00:31:42.359Z,38.30
2018-02-27T00:32:13.978Z,38.20
2018-02-27T00:32:45.617Z,38.30
2018-02-27T00:33:17.241Z,38.30
2018-02-27T00:33:48.867Z,38.20
2018-02-27T00:34:20.494Z,38.40
2018-02-27T00:34:52.127Z,38.10
2018-02-27T00:35:23.765Z,38.10
2018-02-27T00:35:55.373Z,38.30
2018-02-27T00:36:26.998Z,38.10
2018-02-27T00:36:58.618Z,38.00
2018-02-27T00:37:30.261Z,38.40
2018-02-27T00:38:01.883Z,38.60
2018-02-27T00:38:33.510Z,38.70
2018-02-27T00:39:05.138Z,38.50
2018-02-27T00:39:36.777Z,38.60
2018-02-27T00:40:08.417Z,38.40
2018-02-27T00:40:40.060Z,38.60
2018-02-27T00:41:11.660Z,38.60
2018-02-27T00:41:43.303Z,39.20
2018-02-27T00:42:14.915Z,39.10
2018-02-27T00:42:46.559Z,39.10
2018-02-27T00:43:18.176Z,39.10
2018-02-27T00:43:49.798Z,38.90
2018-02-27T00:44:21.449Z,39.50
2018-02-27T00:44:53.187Z,39.50
2018-02-27T00:45:24.806Z,39.40
2018-02-27T00:45:56.435Z,39.30
2018-02-27T00:46:28.052Z,39.60
2018-02-27T00:46:59.681Z,39.70
2018-02-27T00:47:31.316Z,39.90
2018-02-27T00:48:02.927Z,40.20
2018-02-27T00:48:34.549Z,40.30
2018-02-27T00:49:06.183Z,40.40
2018-02-27T00:49:37.810Z,40.30
2018-02-27T00:50:09.437Z,40.40
2018-02-27T00:50:41.058Z,40.40
2018-02-27T00:51:12.673Z,40.40
2018-02-27T00:51:44.320Z,40.30
2018-02-27T00:52:15.963Z,40.20
2018-02-27T00:52:47.617Z,40.10
2018-02-27T00:53:19.229Z,40.00
2018-02-27T00:53:50.830Z,40.10
2018-02-27T00:54:22.449Z,40.10
2018-02-27T00:54:54.090Z,40.20
2018-02-27T00:55:25.717Z,40.00
2018-02-27T00:55:57.367Z,39.90
2018-02-27T00:56:28.977Z,40.10
2018-02-27T00:57:00.589Z,40.10
2018-02-27T00:57:32.225Z,40.10
2018-02-27T00:58:03.859Z,40.00
2018-02-27T00:58:35.499Z,40.00
2018-02-27T00:59:07.131Z,40.30
2018-02-27T00:59:38.759Z,40.30
2018-02-27T01:00:10.396Z,40.50
2018-02-27T01:00:42.056Z,40.20
2018-02-27T01:01:13.699Z,40.20
2018-02-27T01:01:45.329Z,40.00
2018-02-27T01:02:16.968Z,40.10
2018-02-27T01:02:48.585Z,40.30
2018-02-27T01:03:20.192Z,40.30
2018-02-27T01:03:51.811Z,40.10
2018-02-27T01:04:23.441Z,40.30
2018-02-27T01:04:55.111Z,40.30
2018-02-27T01:05:26.762Z,40.40
2018-02-27T01:05:58.470Z,40.60
2018-02-27T01:06:30.101Z,40.40
2018-02-27T01:07:01.764Z,40.40
2018-02-27T01:07:33.401Z,40.50
2018-02-27T01:08:05.083Z,40.40
2018-02-27T01:08:36.721Z,40.50
2018-02-27T01:09:08.366Z,40.60
2018-02-27T01:09:39.998Z,40.60
2018-02-27T01:10:11.615Z,40.50
2018-02-27T01:10:43.249Z,40.50
2018-02-27T01:11:14.881Z,40.40
2018-02-27T01:11:46.484Z,40.40
2018-02-27T01:12:18.148Z,40.70
2018-02-27T01:12:49.789Z,40.60
2018-02-27T01:13:21.426Z,40.70
2018-02-27T01:13:53.072Z,40.80
2018-02-27T01:14:24.704Z,41.00
2018-02-27T01:14:56.319Z,41.00
2018-02-27T01:15:27.948Z,41.20
2018-02-27T01:15:59.557Z,41.40
2018-02-27T01:16:31.187Z,41.50
2018-02-27T01:17:02.846Z,41.60
2018-02-27T01:17:34.461Z,41.60
2018-02-27T01:18:06.078Z,42.00
2018-02-27T01:18:37.713Z,42.00
2018-02-27T01:19:09.326Z,42.10
2018-02-27T01:19:40.947Z,42.10
2018-02-27T01:20:12.559Z,42.00
2018-02-27T01:20:44.189Z,42.10
2018-02-27T01:21:15.811Z,42.00
2018-02-27T01:21:47.417Z,42.30
2018-02-27T01:22:19.051Z,42.40
2018-02-27T01:22:50.715Z,42.50
2018-02-27T01:23:22.345Z,42.70
2018-02-27T01:23:53.975Z,42.90
2018-02-27T01:24:25.614Z,42.90
2018-02-27T01:24:57.233Z,43.30
2018-02-27T01:25:28.845Z,43.20
2018-02-27T01:26:00.494Z,43.20
2018-02-27T01:26:32.117Z,43.10
2018-02-27T01:27:03.711Z,43.20
2018-02-27T01:27:35.311Z,43.30
2018-02-27T01:28:06.937Z,43.30
2018-02-27T01:28:38.561Z,43.30
2018-02-27T01:29:10.188Z,43.30
2018-02-27T01:29:41.801Z,43.20
2018-02-27T01:30:13.449Z,43.20
2018-02-27T01:30:46.907Z,43.40
2018-02-27T01:31:18.534Z,43.50
2018-02-27T01:31:50.169Z,43.50
2018-02-27T01:32:21.795Z,43.50
2018-02-27T01:32:53.425Z,43.30
2018-02-27T01:33:25.054Z,43.10
2018-02-27T01:33:56.671Z,43.40
2018-02-27T01:34:28.293Z,43.30
2018-02-27T01:34:59.911Z,43.10
2018-02-27T01:35:31.535Z,43.00
2018-02-27T01:36:03.175Z,42.90
2018-02-27T01:36:34.787Z,42.80
2018-02-27T01:37:06.434Z,42.90
2018-02-27T01:37:38.071Z,42.90
2018-02-27T01:38:09.685Z,42.80
2018-02-27T01:38:41.319Z,42.80
2018-02-27T01:39:12.955Z,42.80
2018-02-27T01:39:44.581Z,42.90
2018-02-27T01:40:16.195Z,42.90
2018-02-27T01:40:47.839Z,42.90
2018-02-27T01:41:19.732Z,42.70
2018-02-27T01:41:51.345Z,43.20
2018-02-27T01:42:22.961Z,43.00
2018-02-27T01:42:54.628Z,43.10
2018-02-27T01:43:26.249Z,43.00
2018-02-27T01:43:57.875Z,42.80
2018-02-27T01:44:29.479Z,42.80
2018-02-27T01:45:01.127Z,42.80
2018-02-27T01:45:32.789Z,42.80
2018-02-27T01:46:04.405Z,42.70
2018-02-27T01:46:36.058Z,42.80
2018-02-27T01:47:07.687Z,42.60
2018-02-27T01:47:39.311Z,42.60
2018-02-27T01:48:10.985Z,42.60
2018-02-27T01:48:42.607Z,42.60
2018-02-27T01:49:14.235Z,42.60
2018-02-27T01:49:45.863Z,42.40
2018-02-27T01:50:17.509Z,42.70
2018-02-27T01:51:07.743Z,42.90
2018-02-27T01:51:39.375Z,42.80
2018-02-27T01:52:11.019Z,42.70
2018-02-27T01:52:42.629Z,43.10
2018-02-27T01:53:14.259Z,42.90
2018-02-27T01:53:45.887Z,42.90
2018-02-27T01:54:17.513Z,42.90
2018-02-27T01:54:49.142Z,43.10
2018-02-27T01:55:20.796Z,43.10
2018-02-27T01:55:52.431Z,43.30
2018-02-27T01:56:24.060Z,43.20
2018-02-27T01:56:55.673Z,43.40
2018-02-27T01:57:27.303Z,43.40
2018-02-27T01:57:58.933Z,43.30
2018-02-27T01:58:30.545Z,43.50
2018-02-27T01:59:02.160Z,43.90
2018-02-27T01:59:33.783Z,43.90
2018-02-27T02:00:05.426Z,44.10
2018-02-27T02:00:37.086Z,44.20
2018-02-27T02:01:08.746Z,44.10
2018-02-27T02:01:40.391Z,44.00
2018-02-27T02:02:12.037Z,44.00
2018-02-27T02:02:43.710Z,44.10
2018-02-27T02:03:15.316Z,44.10
2018-02-27T02:03:46.948Z,44.00
2018-02-27T02:04:18.557Z,44.60
2018-02-27T02:04:50.199Z,44.90
2018-02-27T02:05:21.833Z,45.00
2018-02-27T02:05:53.479Z,44.90
2018-02-27T02:06:25.112Z,44.90
2018-02-27T02:06:56.760Z,45.20
2018-02-27T02:07:28.375Z,45.10
2018-02-27T02:08:00.014Z,45.20
2018-02-27T02:08:31.646Z,45.90
2018-02-27T02:09:03.360Z,46.00
2018-02-27T02:09:34.996Z,46.10
2018-02-27T02:10:06.629Z,46.40
2018-02-27T02:10:38.235Z,46.40
2018-02-27T02:11:10.052Z,46.50
2018-02-27T02:11:41.660Z,46.50
2018-02-27T02:12:13.305Z,46.50
2018-02-27T02:12:44.913Z,46.90
2018-02-27T02:13:16.530Z,47.10
2018-02-27T02:13:48.181Z,47.10
2018-02-27T02:14:19.793Z,47.30
2018-02-27T02:14:51.407Z,45.60
2018-02-27T02:15:23.025Z,45.60
2018-02-27T02:15:54.659Z,47.40
2018-02-27T02:16:26.301Z,47.40
2018-02-27T02:16:57.945Z,47.40
2018-02-27T02:17:29.573Z,45.90
2018-02-27T02:18:01.202Z,46.00
2018-02-27T02:18:32.831Z,46.00
2018-02-27T02:19:04.453Z,46.40
2018-02-27T02:19:36.052Z,46.40
2018-02-27T02:20:07.693Z,46.50
2018-02-27T02:20:39.335Z,46.90
2018-02-27T02:21:10.970Z,46.90
2018-02-27T02:21:42.620Z,47.20
2018-02-27T02:22:14.296Z,47.30
2018-02-27T02:22:45.926Z,47.50
2018-02-27T02:23:17.558Z,47.60
2018-02-27T02:23:49.241Z,47.50
2018-02-27T02:24:20.883Z,47.30
2018-02-27T02:24:52.513Z,47.60
2018-02-27T02:25:24.154Z,47.60
2018-02-27T02:25:55.757Z,48.30
2018-02-27T02:26:27.391Z,48.30
2018-02-27T02:26:59.023Z,48.40
2018-02-27T02:27:30.654Z,48.60
2018-02-27T02:28:02.296Z,48.30
2018-02-27T02:28:33.950Z,48.50
2018-02-27T02:29:05.564Z,48.50
2018-02-27T02:29:37.165Z,48.90
2018-02-27T02:30:08.793Z,49.00
2018-02-27T02:30:40.447Z,49.10
2018-02-27T02:31:12.076Z,48.90
2018-02-27T02:31:43.710Z,48.80
2018-02-27T02:32:15.355Z,48.50
2018-02-27T02:32:47.021Z,48.60
2018-02-27T02:33:18.650Z,48.80
2018-02-27T02:33:50.275Z,49.30
2018-02-27T02:34:21.905Z,49.50
2018-02-27T02:34:53.542Z,49.20
2018-02-27T02:35:25.180Z,49.60
2018-02-27T02:35:56.829Z,49.50
2018-02-27T02:36:28.457Z,49.30
2018-02-27T02:37:00.062Z,49.80
2018-02-27T02:37:31.705Z,49.70
2018-02-27T02:38:03.371Z,49.70
2018-02-27T02:38:34.957Z,50.10
2018-02-27T02:39:06.577Z,50.20
2018-02-27T02:39:38.208Z,50.20
2018-02-27T02:40:09.829Z,50.40
2018-02-27T02:40:41.465Z,50.50
2018-02-27T02:41:13.097Z,50.50
2018-02-27T02:41:44.785Z,50.40
2018-02-27T02:42:23.700Z,50.50
2018-02-27T02:42:55.345Z,50.60
2018-02-27T02:43:26.990Z,50.90
2018-02-27T02:43:58.589Z,50.80
2018-02-27T02:44:30.220Z,50.70
2018-02-27T02:45:01.851Z,50.50
2018-02-27T02:45:33.485Z,50.60
2018-02-27T02:46:05.103Z,50.80
2018-02-27T02:46:36.761Z,50.70
2018-02-27T02:47:08.383Z,50.90
2018-02-27T02:47:40.005Z,51.50
2018-02-27T02:48:11.627Z,52.20
2018-02-27T02:48:43.251Z,52.00
2018-02-27T02:49:14.868Z,51.90
2018-02-27T02:49:46.508Z,52.00
2018-02-27T02:50:18.157Z,51.80
2018-02-27T02:50:49.785Z,52.20
2018-02-27T02:51:21.418Z,53.00
2018-02-27T02:51:53.043Z,53.00
2018-02-27T02:52:24.661Z,52.80
2018-02-27T02:52:56.301Z,52.60
2018-02-27T02:53:27.913Z,52.50
2018-02-27T02:53:59.561Z,52.40
2018-02-27T02:54:31.181Z,52.80
2018-02-27T02:55:02.860Z,52.60
2018-02-27T02:55:34.484Z,52.80
2018-02-27T02:56:06.089Z,53.00
2018-02-27T02:56:37.741Z,53.40
2018-02-27T02:57:09.381Z,53.80
2018-02-27T02:57:41.055Z,53.60
2018-02-27T02:58:12.736Z,53.50
2018-02-27T02:58:44.377Z,53.50
2018-02-27T02:59:16.002Z,53.60
2018-02-27T02:59:47.664Z,53.60
2018-02-27T03:00:19.294Z,53.80
2018-02-27T03:00:50.966Z,53.70
2018-02-27T03:01:22.592Z,53.60
2018-02-27T03:01:54.210Z,53.80
2018-02-27T03:02:25.829Z,53.80
2018-02-27T03:02:57.487Z,53.70
2018-02-27T03:03:29.111Z,53.70
2018-02-27T03:04:00.735Z,53.90
2018-02-27T03:04:32.351Z,54.00
2018-02-27T03:05:03.987Z,53.90
2018-02-27T03:05:35.627Z,53.80
2018-02-27T03:06:07.245Z,54.00
2018-02-27T03:06:38.887Z,54.00
2018-02-27T03:07:10.524Z,53.80
2018-02-27T03:07:42.182Z,53.80
2018-02-27T03:08:13.821Z,53.90
2018-02-27T03:08:45.449Z,53.80
2018-02-27T03:09:17.085Z,54.20
2018-02-27T03:09:48.711Z,54.50
2018-02-27T03:10:20.367Z,54.30
2018-02-27T03:10:52.001Z,54.20
2018-02-27T03:11:23.614Z,54.40
2018-02-27T03:11:55.237Z,54.50
2018-02-27T03:12:26.859Z,54.60
2018-02-27T03:12:58.494Z,54.60
2018-02-27T03:13:30.130Z,54.60
2018-02-27T03:14:01.752Z,54.50
2018-02-27T03:14:33.415Z,54.40
2018-02-27T03:15:05.060Z,54.80
2018-02-27T03:15:36.683Z,54.80
2018-02-27T03:16:08.311Z,54.90
2018-02-27T03:16:39.939Z,54.80
2018-02-27T03:17:11.568Z,54.70
2018-02-27T03:17:43.198Z,54.90
2018-02-27T03:18:14.817Z,54.70
2018-02-27T03:18:46.437Z,55.10
2018-02-27T03:19:18.055Z,55.10
2018-02-27T03:19:49.683Z,55.10
2018-02-27T03:20:21.367Z,55.10
2018-02-27T03:20:52.989Z,55.30
2018-02-27T03:21:24.690Z,55.40
2018-02-27T03:21:56.416Z,55.20
2018-02-27T03:22:28.110Z,55.40
2018-02-27T03:22:59.796Z,55.50
2018-02-27T03:23:31.476Z,55.30
2018-02-27T03:24:03.164Z,55.20
2018-02-27T03:24:34.835Z,55.10
2018-02-27T03:25:06.530Z,55.20
2018-02-27T03:25:38.221Z,55.40
2018-02-27T03:26:09.900Z,56.00
2018-02-27T03:26:41.640Z,55.90
2018-02-27T03:27:13.309Z,55.80
2018-02-27T03:27:44.978Z,55.60
2018-02-27T03:28:16.645Z,56.30
2018-02-27T03:28:48.339Z,56.40
2018-02-27T03:29:20.020Z,56.40
2018-02-27T03:29:51.673Z,56.10
2018-02-27T03:30:23.355Z,56.00
2018-02-27T03:30:55.033Z,55.90
2018-02-27T03:31:26.735Z,55.70
2018-02-27T03:31:58.393Z,55.70
2018-02-27T03:32:30.030Z,56.20
2018-02-27T03:33:01.684Z,56.30
2018-02-27T03:33:33.350Z,56.10
2018-02-27T03:34:05.026Z,56.10
2018-02-27T03:34:36.700Z,56.30
2018-02-27T03:35:08.377Z,56.60
2018-02-27T03:35:40.084Z,56.70
2018-02-27T03:36:11.774Z,56.90
2018-02-27T03:36:43.428Z,56.80
2018-02-27T03:37:15.102Z,56.90
2018-02-27T03:37:46.758Z,56.70
2018-02-27T03:38:18.424Z,56.40
2018-02-27T03:38:50.106Z,56.70
2018-02-27T03:39:21.832Z,56.70
2018-02-27T03:39:53.554Z,56.70
2018-02-27T03:40:25.228Z,56.60
2018-02-27T03:40:56.896Z,56.70
2018-02-27T03:41:28.599Z,56.50
2018-02-27T03:42:00.265Z,56.60
2018-02-27T03:42:31.950Z,56.70
2018-02-27T03:43:03.662Z,56.90
2018-02-27T03:43:35.322Z,57.10
2018-02-27T03:44:07.022Z,57.10
2018-02-27T03:44:38.712Z,57.30
2018-02-27T03:45:10.394Z,57.40
2018-02-27T03:45:42.093Z,57.60
2018-02-27T03:46:13.798Z,57.90
2018-02-27T03:46:45.466Z,58.30
2018-02-27T03:47:17.132Z,58.40
2018-02-27T03:47:48.822Z,58.30
2018-02-27T03:48:20.478Z,58.30
2018-02-27T03:48:52.163Z,58.10
2018-02-27T03:49:23.836Z,58.00
2018-02-27T03:49:55.502Z,58.00
2018-02-27T03:50:27.179Z,57.70
2018-02-27T03:50:58.823Z,57.80
2018-02-27T03:51:30.480Z,57.70
2018-02-27T03:52:02.114Z,58.10
2018-02-27T03:52:33.737Z,58.40
2018-02-27T03:53:05.376Z,58.50
2018-02-27T03:53:36.998Z,58.40
2018-02-27T03:54:08.641Z,58.50
2018-02-27T03:54:40.251Z,58.30
2018-02-27T03:55:11.894Z,58.40
2018-02-27T03:55:43.498Z,58.80
2018-02-27T03:56:15.117Z,58.70
2018-02-27T03:56:46.743Z,58.80
2018-02-27T03:57:18.356Z,59.40
2018-02-27T03:57:50.001Z,59.30
2018-02-27T03:58:21.631Z,59.60
2018-02-27T03:58:53.247Z,59.80
2018-02-27T03:59:24.883Z,59.60
2018-02-27T03:59:56.523Z,59.50
2018-02-27T04:00:28.159Z,59.50
2018-02-27T04:00:59.783Z,59.50
2018-02-27T04:01:31.420Z,59.60
2018-02-27T04:02:03.063Z,59.70
2018-02-27T04:02:34.673Z,59.90
2018-02-27T04:03:06.332Z,60.00
2018-02-27T04:03:37.965Z,60.00
2018-02-27T04:04:09.585Z,60.10
2018-02-27T04:04:41.225Z,60.60
2018-02-27T04:05:12.843Z,60.60
2018-02-27T04:05:44.489Z,60.30
2018-02-27T04:06:16.119Z,60.50
2018-02-27T04:06:47.748Z,60.90
2018-02-27T04:07:19.385Z,61.00
2018-02-27T04:07:51.025Z,61.10
2018-02-27T04:08:22.627Z,60.90
2018-02-27T04:08:54.305Z,61.10
2018-02-27T04:09:25.965Z,61.00
2018-02-27T04:09:57.593Z,60.80
2018-02-27T04:10:29.213Z,60.80
2018-02-27T04:11:00.855Z,60.80
2018-02-27T04:11:32.495Z,60.60
2018-02-27T04:12:04.120Z,60.70
2018-02-27T04:12:35.756Z,61.30
2018-02-27T04:13:07.390Z,61.50
2018-02-27T04:13:38.997Z,61.50
2018-02-27T04:14:10.622Z,61.30
2018-02-27T04:14:42.254Z,61.00
2018-02-27T04:15:13.863Z,61.20
2018-02-27T04:15:45.517Z,61.60
2018-02-27T04:16:17.141Z,61.30
2018-02-27T04:16:48.779Z,61.20
2018-02-27T04:17:20.391Z,61.20
2018-02-27T04:17:52.059Z,61.00
2018-02-27T04:18:23.735Z,60.90
2018-02-27T04:18:55.347Z,61.60
2018-02-27T04:19:26.973Z,61.90
2018-02-27T04:19:58.598Z,62.00
2018-02-27T04:20:30.221Z,61.90
2018-02-27T04:21:01.843Z,61.90
2018-02-27T04:21:33.449Z,62.00
2018-02-27T04:22:05.074Z,62.40
2018-02-27T04:22:36.741Z,62.50
2018-02-27T04:23:08.393Z,62.50
2018-02-27T04:23:40.055Z,62.20
2018-02-27T04:24:11.688Z,62.10
2018-02-27T04:24:43.329Z,61.90
2018-02-27T04:25:15.021Z,62.20
2018-02-27T04:25:46.653Z,62.20
2018-02-27T04:26:18.265Z,62.20
2018-02-27T04:26:49.901Z,62.10
2018-02-27T04:27:21.517Z,62.00
2018-02-27T04:27:53.135Z,62.00
2018-02-27T04:28:24.770Z,61.90
2018-02-27T04:28:56.390Z,62.10
2018-02-27T04:29:28.106Z,62.20
2018-02-27T04:29:59.753Z,62.40
2018-02-27T04:30:31.383Z,62.40
2018-02-27T04:31:03.829Z,62.80
2018-02-27T04:31:35.458Z,62.50
2018-02-27T04:32:07.093Z,62.30
2018-02-27T04:32:38.709Z,62.60
2018-02-27T04:33:10.377Z,62.50
2018-02-27T04:33:42.015Z,62.80
2018-02-27T04:34:13.644Z,62.60
2018-02-27T04:34:45.287Z,62.50
2018-02-27T04:35:16.910Z,62.40
2018-02-27T04:35:48.537Z,62.20
2018-02-27T04:36:20.165Z,62.20
2018-02-27T04:36:51.805Z,62.20
2018-02-27T04:37:23.441Z,62.10
2018-02-27T04:37:55.086Z,62.20
2018-02-27T04:38:26.730Z,62.50
2018-02-27T04:38:58.369Z,62.50
2018-02-27T04:39:30.011Z,62.50
2018-02-27T04:40:01.638Z,62.50
2018-02-27T04:40:33.293Z,62.40
2018-02-27T04:41:04.955Z,62.40
2018-02-27T04:41:36.559Z,62.30
2018-02-27T04:42:08.193Z,62.30
2018-02-27T04:42:39.851Z,62.60
2018-02-27T04:43:11.489Z,62.60
2018-02-27T04:43:43.144Z,63.20
2018-02-27T04:44:14.792Z,63.20
2018-02-27T04:45:01.359Z,63.20
2018-02-27T04:45:32.993Z,63.10
2018-02-27T04:46:04.623Z,63.00
2018-02-27T04:46:36.264Z,63.10
2018-02-27T04:47:07.908Z,63.00
2018-02-27T04:47:39.569Z,62.90
2018-02-27T04:48:11.203Z,62.80
2018-02-27T04:48:42.833Z,62.70
2018-02-27T04:49:14.477Z,63.00
2018-02-27T04:49:46.081Z,62.90
2018-02-27T04:50:17.697Z,62.90
2018-02-27T04:50:49.346Z,63.10
2018-02-27T04:51:21.017Z,63.20
2018-02-27T04:51:52.648Z,63.80
2018-02-27T04:52:24.270Z,63.90
2018-02-27T04:52:55.919Z,64.10
2018-02-27T04:53:27.525Z,64.30
2018-02-27T04:53:59.146Z,64.00
2018-02-27T04:54:30.824Z,63.80
2018-02-27T04:55:02.469Z,63.70
2018-02-27T04:55:34.095Z,64.00
2018-02-27T04:56:05.733Z,63.80
2018-02-27T04:56:37.337Z,63.70
2018-02-27T04:57:08.982Z,63.50
2018-02-27T04:57:40.607Z,63.70
2018-02-27T04:58:12.259Z,63.90
2018-02-27T04:58:43.885Z,63.80
2018-02-27T04:59:15.502Z,63.80
2018-02-27T04:59:47.137Z,63.70
2018-02-27T05:00:18.771Z,63.60
2018-02-27T05:00:50.389Z,63.50
2018-02-27T05:01:21.996Z,63.50
2018-02-27T05:01:53.659Z,63.40
2018-02-27T05:02:25.281Z,63.40
2018-02-27T05:02:56.905Z,63.50
2018-02-27T05:03:28.531Z,63.70
2018-02-27T05:04:00.193Z,63.80
2018-02-27T05:04:31.847Z,63.70
2018-02-27T05:05:03.485Z,63.70
2018-02-27T05:05:35.117Z,63.60
2018-02-27T05:06:06.729Z,63.50
2018-02-27T05:06:38.357Z,63.50
2018-02-27T05:07:09.976Z,63.40
2018-02-27T05:07:41.603Z,63.40
2018-02-27T05:08:13.243Z,63.40
2018-02-27T05:08:44.898Z,63.40
2018-02-27T05:09:16.542Z,63.40
2018-02-27T05:09:48.167Z,63.40
2018-02-27T05:10:19.835Z,63.50
2018-02-27T05:10:51.728Z,63.50
2018-02-27T05:11:23.333Z,64.10
2018-02-27T05:11:54.945Z,64.50
2018-02-27T05:12:26.651Z,64.70
2018-02-27T05:12:58.265Z,64.80
2018-02-27T05:13:29.917Z,65.60
2018-02-27T05:14:01.539Z,65.70
2018-02-27T05:14:33.157Z,65.80
2018-02-27T05:15:04.777Z,66.10
2018-02-27T05:15:36.449Z,66.30
2018-02-27T05:16:08.080Z,66.00
2018-02-27T05:16:39.697Z,65.90
2018-02-27T05:17:11.313Z,66.10
2018-02-27T05:17:42.932Z,65.80
2018-02-27T05:18:14.557Z,66.10
2018-02-27T05:18:46.309Z,66.20
2018-02-27T05:19:18.027Z,66.00
2018-02-27T05:19:49.687Z,65.80
2018-02-27T05:20:21.308Z,65.80
2018-02-27T05:20:52.993Z,66.00
2018-02-27T05:21:24.658Z,66.00
2018-02-27T05:21:56.314Z,66.30
2018-02-27T05:22:27.919Z,66.30
2018-02-27T05:22:59.553Z,66.20
2018-02-27T05:23:31.181Z,66.30
2018-02-27T05:24:02.909Z,66.30
2018-02-27T05:24:34.585Z,66.20
2018-02-27T05:25:06.198Z,66.10
2018-02-27T05:25:37.822Z,66.20
2018-02-27T05:26:09.461Z,66.30
2018-02-27T05:26:41.089Z,66.30
2018-02-27T05:27:12.721Z,66.60
2018-02-27T05:27:44.366Z,66.50
2018-02-27T05:28:16.002Z,66.50
2018-02-27T05:28:47.621Z,66.30
2018-02-27T05:29:19.263Z,66.50
2018-02-27T05:29:50.921Z,66.50
2018-02-27T05:30:22.569Z,66.20
2018-02-27T05:30:54.213Z,65.90
2018-02-27T05:31:25.856Z,65.80
2018-02-27T05:31:57.475Z,65.70
2018-02-27T05:32:29.113Z,65.60
2018-02-27T05:33:00.749Z,65.50
2018-02-27T05:33:32.381Z,65.50
2018-02-27T05:34:04.044Z,65.60
2018-02-27T05:34:35.685Z,65.50
2018-02-27T05:35:07.311Z,65.50
2018-02-27T05:35:38.945Z,65.50
2018-02-27T05:36:10.563Z,65.50
2018-02-27T05:36:42.223Z,65.60
2018-02-27T05:37:13.849Z,65.80
2018-02-27T05:37:45.458Z,65.80
2018-02-27T05:38:17.087Z,65.90
2018-02-27T05:38:48.699Z,65.90
2018-02-27T05:39:20.313Z,65.90
2018-02-27T05:39:51.955Z,66.10
2018-02-27T05:40:23.598Z,66.30
2018-02-27T05:40:55.233Z,67.30
2018-02-27T05:41:26.868Z,67.50
2018-02-27T05:41:58.494Z,67.40
2018-02-27T05:42:30.116Z,67.40
2018-02-27T05:43:01.723Z,67.40
2018-02-27T05:43:33.350Z,67.50
2018-02-27T05:44:04.977Z,68.00
2018-02-27T05:44:36.619Z,67.90
2018-02-27T05:45:08.235Z,67.80
2018-02-27T05:45:39.889Z,68.00
2018-02-27T05:46:11.536Z,68.00
2018-02-27T05:46:43.155Z,67.80
2018-02-27T05:47:14.799Z,67.90
2018-02-27T05:47:46.463Z,67.90
2018-02-27T05:48:18.123Z,67.70
2018-02-27T05:48:49.756Z,67.50
2018-02-27T05:49:21.359Z,67.40
2018-02-27T05:49:52.991Z,67.80
2018-02-27T05:50:24.676Z,68.00
2018-02-27T05:50:56.296Z,68.30
2018-02-27T05:51:27.917Z,68.20
2018-02-27T05:51:59.543Z,68.00
2018-02-27T05:52:31.196Z,67.90
2018-02-27T05:53:02.861Z,67.80
2018-02-27T05:53:34.465Z,67.80
2018-02-27T05:54:06.121Z,67.70
2018-02-27T05:54:37.757Z,67.60
2018-02-27T05:55:09.368Z,67.70
2018-02-27T05:55:40.993Z,67.80
2018-02-27T05:56:12.629Z,67.80
2018-02-27T05:56:44.254Z,67.70
2018-02-27T05:57:15.867Z,67.70
2018-02-27T05:57:47.513Z,67.70
2018-02-27T05:58:19.159Z,67.60
2018-02-27T05:58:50.787Z,67.60
2018-02-27T05:59:22.409Z,67.70
2018-02-27T05:59:54.455Z,67.50
2018-02-27T06:00:26.104Z,67.60
2018-02-27T06:00:57.785Z,68.10
2018-02-27T06:01:29.425Z,68.20
2018-02-27T06:02:01.055Z,68.40
2018-02-27T06:02:32.691Z,68.30
2018-02-27T06:03:04.335Z,68.30
2018-02-27T06:03:35.976Z,68.10
2018-02-27T06:04:07.636Z,67.90
2018-02-27T06:04:39.288Z,68.00
2018-02-27T06:05:10.937Z,68.10
2018-02-27T06:05:42.579Z,68.10
2018-02-27T06:06:14.209Z,68.40
2018-02-27T06:06:45.826Z,68.50
2018-02-27T06:07:17.446Z,68.60
2018-02-27T06:07:49.086Z,68.60
2018-02-27T06:08:20.689Z,69.00
2018-02-27T06:08:52.317Z,68.80
2018-02-27T06:09:23.963Z,68.60
2018-02-27T06:09:55.639Z,68.80
2018-02-27T06:10:27.225Z,68.70
2018-02-27T06:10:58.862Z,68.60
2018-02-27T06:11:30.497Z,68.80
2018-02-27T06:12:02.145Z,68.80
2018-02-27T06:12:33.764Z,68.60
2018-02-27T06:13:05.503Z,68.80
2018-02-27T06:13:37.093Z,69.10
2018-02-27T06:14:08.769Z,69.00
2018-02-27T06:14:40.415Z,69.20
2018-02-27T06:15:12.046Z,69.30
2018-02-27T06:15:43.689Z,69.20
2018-02-27T06:16:15.305Z,69.00
2018-02-27T06:16:46.957Z,68.90
2018-02-27T06:17:18.551Z,68.90
2018-02-27T06:17:50.156Z,68.70
2018-02-27T06:18:21.777Z,68.90
2018-02-27T06:18:53.409Z,68.80
2018-02-27T06:19:25.028Z,69.10
2018-02-27T06:19:56.648Z,69.40
2018-02-27T06:20:28.282Z,69.30
2018-02-27T06:20:59.913Z,69.30
2018-02-27T06:21:31.551Z,69.10
2018-02-27T06:22:03.164Z,69.10
2018-02-27T06:22:34.790Z,69.00
2018-02-27T06:23:06.397Z,68.90
2018-02-27T06:23:38.013Z,68.80
2018-02-27T06:24:09.661Z,68.50
2018-02-27T06:24:41.297Z,68.50
2018-02-27T06:25:12.919Z,68.40
2018-02-27T06:25:44.537Z,68.30
2018-02-27T06:26:16.161Z,68.40
2018-02-27T06:26:47.785Z,68.40
2018-02-27T06:27:19.407Z,68.40
2018-02-27T06:27:51.024Z,68.20
2018-02-27T06:28:22.638Z,68.50
2018-02-27T06:28:54.257Z,68.40
2018-02-27T06:29:25.934Z,68.10
2018-02-27T06:29:57.569Z,68.30
2018-02-27T06:30:29.185Z,68.30
2018-02-27T06:31:00.806Z,68.50
2018-02-27T06:31:32.441Z,68.30
2018-02-27T06:32:04.107Z,68.20
2018-02-27T06:32:35.739Z,68.10
2018-02-27T06:33:07.377Z,68.40
2018-02-27T06:33:39.009Z,68.30
2018-02-27T06:34:10.641Z,68.50
2018-02-27T06:34:42.319Z,68.50
2018-02-27T06:35:14.026Z,68.60
2018-02-27T06:35:45.639Z,68.80
2018-02-27T06:36:17.271Z,68.60
2018-02-27T06:36:48.888Z,68.70
2018-02-27T06:37:20.546Z,68.60
2018-02-27T06:37:52.143Z,68.40
2018-02-27T06:38:23.795Z,68.30
2018-02-27T06:38:55.434Z,68.20
2018-02-27T06:39:27.070Z,68.10
2018-02-27T06:39:58.705Z,68.00
2018-02-27T06:40:30.388Z,67.90
2018-02-27T06:41:02.046Z,67.90
2018-02-27T06:41:33.665Z,67.80
2018-02-27T06:42:05.295Z,68.10
2018-02-27T06:42:36.934Z,68.20
2018-02-27T06:43:08.574Z,68.10
2018-02-27T06:43:40.215Z,68.10
2018-02-27T06:44:11.844Z,68.20
2018-02-27T06:44:43.485Z,68.30
2018-02-27T06:45:15.125Z,68.50
2018-02-27T06:45:46.795Z,68.40
2018-02-27T06:46:18.410Z,68.50
2018-02-27T06:46:50.013Z,68.60
2018-02-27T06:47:21.640Z,68.90
2018-02-27T06:47:53.256Z,69.00